sensor_id;sensor_type;location;lat;lon;timestamp;temperature;humidity
20740;DHT22;10530;49.968;19.844;2023-06-24T00:04:51;18.80;99.90
20740;DHT22;10530;49.968;19.844;2023-06-24T00:09:56;18.90;99.90
20740;DHT22;10530;49.968;19.844;2023-06-24T00:14:59;18.90;99.90
20740;DHT22;10530;49.968;19.844;2023-06-24T00:20:02;19.00;99.90
20740;DHT22;10530;49.968;19.844;2023-06-24T00:25:11;19.00;99.90
20740;DHT22;10530;49.968;19.844;2023-06-24T00:30:14;19.00;99.90
20740;DHT22;10530;49.968;19.844;2023-06-24T00:35:17;18.90;99.90
20740;DHT22;10530;49.968;19.844;2023-06-24T00:40:21;18.90;99.90
20740;DHT22;10530;49.968;19.844;2023-06-24T00:45:24;18.90;99.90
20740;DHT22;10530;49.968;19.844;2023-06-24T00:50:27;18.80;99.90
20740;DHT22;10530;49.968;19.844;2023-06-24T00:55:30;18.80;99.90
20740;DHT22;10530;49.968;19.844;2023-06-24T01:00:34;18.80;99.90
20740;DHT22;10530;49.968;19.844;2023-06-24T01:05:37;18.80;99.90
20740;DHT22;10530;49.968;19.844;2023-06-24T01:10:42;18.80;99.90
20740;DHT22;10530;49.968;19.844;2023-06-24T01:15:46;18.70;99.90
20740;DHT22;10530;49.968;19.844;2023-06-24T01:20:55;18.70;99.90
20740;DHT22;10530;49.968;19.844;2023-06-24T01:26:31;18.80;99.90
20740;DHT22;10530;49.968;19.844;2023-06-24T01:36:47;18.70;99.90
20740;DHT22;10530;49.968;19.844;2023-06-24T01:41:59;18.70;99.90
20740;DHT22;10530;49.968;19.844;2023-06-24T01:47:04;18.70;99.90
20740;DHT22;10530;49.968;19.844;2023-06-24T01:52:09;18.70;99.90
20740;DHT22;10530;49.968;19.844;2023-06-24T01:57:13;18.70;99.90
20740;DHT22;10530;49.968;19.844;2023-06-24T02:02:18;18.70;99.90
20740;DHT22;10530;49.968;19.844;2023-06-24T02:07:23;18.70;99.90
20740;DHT22;10530;49.968;19.844;2023-06-24T02:12:29;18.70;99.90
20740;DHT22;10530;49.968;19.844;2023-06-24T02:17:33;18.70;99.90
20740;DHT22;10530;49.968;19.844;2023-06-24T02:22:38;18.70;99.90
20740;DHT22;10530;49.968;19.844;2023-06-24T02:27:43;18.70;99.90
20740;DHT22;10530;49.968;19.844;2023-06-24T02:32:47;18.70;99.90
20740;DHT22;10530;49.968;19.844;2023-06-24T02:37:51;18.70;99.90
20740;DHT22;10530;49.968;19.844;2023-06-24T02:42:54;18.70;99.90
20740;DHT22;10530;49.968;19.844;2023-06-24T02:47:57;18.70;99.90
20740;DHT22;10530;49.968;19.844;2023-06-24T02:53:02;18.70;99.90
20740;DHT22;10530;49.968;19.844;2023-06-24T02:58:10;18.60;99.90
20740;DHT22;10530;49.968;19.844;2023-06-24T03:03:42;18.50;99.90
20740;DHT22;10530;49.968;19.844;2023-06-24T03:08:48;18.50;99.90
20740;DHT22;10530;49.968;19.844;2023-06-24T03:13:54;18.40;99.90
20740;DHT22;10530;49.968;19.844;2023-06-24T03:19:03;18.40;99.90
20740;DHT22;10530;49.968;19.844;2023-06-24T03:24:08;18.30;99.90
20740;DHT22;10530;49.968;19.844;2023-06-24T03:29:12;18.30;99.90
20740;DHT22;10530;49.968;19.844;2023-06-24T03:34:24;18.20;99.90
20740;DHT22;10530;49.968;19.844;2023-06-24T03:39:29;18.20;99.90
20740;DHT22;10530;49.968;19.844;2023-06-24T03:44:32;18.10;99.90
20740;DHT22;10530;49.968;19.844;2023-06-24T03:49:36;18.10;99.90
20740;DHT22;10530;49.968;19.844;2023-06-24T03:54:40;18.10;99.90
20740;DHT22;10530;49.968;19.844;2023-06-24T03:59:43;18.00;99.90
20740;DHT22;10530;49.968;19.844;2023-06-24T04:04:45;18.00;99.90
20740;DHT22;10530;49.968;19.844;2023-06-24T04:09:55;17.90;99.90
20740;DHT22;10530;49.968;19.844;2023-06-24T04:14:58;18.00;99.90
20740;DHT22;10530;49.968;19.844;2023-06-24T04:20:02;18.00;99.90
20740;DHT22;10530;49.968;19.844;2023-06-24T04:25:11;17.90;99.90
20740;DHT22;10530;49.968;19.844;2023-06-24T04:30:14;17.80;99.90
20740;DHT22;10530;49.968;19.844;2023-06-24T04:35:17;17.80;99.90
20740;DHT22;10530;49.968;19.844;2023-06-24T04:40:20;17.80;99.90
20740;DHT22;10530;49.968;19.844;2023-06-24T04:45:23;17.70;99.90
20740;DHT22;10530;49.968;19.844;2023-06-24T04:50:26;17.70;99.90
20740;DHT22;10530;49.968;19.844;2023-06-24T04:55:29;17.70;99.90
20740;DHT22;10530;49.968;19.844;2023-06-24T05:00:35;17.70;99.90
20740;DHT22;10530;49.968;19.844;2023-06-24T05:05:38;17.70;99.90
20740;DHT22;10530;49.968;19.844;2023-06-24T05:10:42;17.80;99.90
20740;DHT22;10530;49.968;19.844;2023-06-24T05:15:45;17.80;99.90
20740;DHT22;10530;49.968;19.844;2023-06-24T05:20:48;17.70;99.90
20740;DHT22;10530;49.968;19.844;2023-06-24T05:25:51;17.70;99.90
20740;DHT22;10530;49.968;19.844;2023-06-24T05:30:54;17.60;99.90
20740;DHT22;10530;49.968;19.844;2023-06-24T05:35:58;17.60;99.90
20740;DHT22;10530;49.968;19.844;2023-06-24T05:41:01;17.60;99.90
20740;DHT22;10530;49.968;19.844;2023-06-24T05:46:05;17.60;99.90
20740;DHT22;10530;49.968;19.844;2023-06-24T05:51:08;17.70;99.90
20740;DHT22;10530;49.968;19.844;2023-06-24T05:56:11;17.70;99.90
20740;DHT22;10530;49.968;19.844;2023-06-24T06:01:14;17.90;99.90
20740;DHT22;10530;49.968;19.844;2023-06-24T06:06:17;17.80;99.90
20740;DHT22;10530;49.968;19.844;2023-06-24T06:11:20;17.90;99.90
20740;DHT22;10530;49.968;19.844;2023-06-24T06:16:23;17.90;99.90
20740;DHT22;10530;49.968;19.844;2023-06-24T06:21:26;17.90;99.90
20740;DHT22;10530;49.968;19.844;2023-06-24T06:26:29;17.90;99.90
20740;DHT22;10530;49.968;19.844;2023-06-24T06:31:32;17.80;99.90
20740;DHT22;10530;49.968;19.844;2023-06-24T06:36:35;17.90;99.90
20740;DHT22;10530;49.968;19.844;2023-06-24T06:41:38;17.80;99.90
20740;DHT22;10530;49.968;19.844;2023-06-24T06:46:50;17.80;99.90
20740;DHT22;10530;49.968;19.844;2023-06-24T06:51:54;17.90;99.90
20740;DHT22;10530;49.968;19.844;2023-06-24T06:57:04;17.90;99.90
20740;DHT22;10530;49.968;19.844;2023-06-24T07:02:07;17.80;99.90
20740;DHT22;10530;49.968;19.844;2023-06-24T07:07:10;17.80;99.90
20740;DHT22;10530;49.968;19.844;2023-06-24T07:12:14;17.90;99.90
20740;DHT22;10530;49.968;19.844;2023-06-24T07:17:17;17.90;99.90
20740;DHT22;10530;49.968;19.844;2023-06-24T07:22:20;18.00;99.90
20740;DHT22;10530;49.968;19.844;2023-06-24T07:27:24;18.30;99.90
20740;DHT22;10530;49.968;19.844;2023-06-24T07:32:27;18.40;99.90
20740;DHT22;10530;49.968;19.844;2023-06-24T07:37:30;18.30;99.90
20740;DHT22;10530;49.968;19.844;2023-06-24T07:42:33;18.30;99.90
20740;DHT22;10530;49.968;19.844;2023-06-24T07:47:36;18.20;99.90
20740;DHT22;10530;49.968;19.844;2023-06-24T07:52:39;18.10;99.90
20740;DHT22;10530;49.968;19.844;2023-06-24T07:57:45;18.20;99.90
20740;DHT22;10530;49.968;19.844;2023-06-24T08:02:49;18.20;99.90
20740;DHT22;10530;49.968;19.844;2023-06-24T08:07:52;18.20;99.90
20740;DHT22;10530;49.968;19.844;2023-06-24T08:12:55;18.20;99.90
20740;DHT22;10530;49.968;19.844;2023-06-24T08:17:58;18.20;99.90
20740;DHT22;10530;49.968;19.844;2023-06-24T08:23:02;18.30;99.90
20740;DHT22;10530;49.968;19.844;2023-06-24T08:28:05;18.40;99.90
20740;DHT22;10530;49.968;19.844;2023-06-24T08:33:08;18.40;99.90
20740;DHT22;10530;49.968;19.844;2023-06-24T08:38:10;18.70;99.90
20740;DHT22;10530;49.968;19.844;2023-06-24T08:43:13;18.90;99.90
20740;DHT22;10530;49.968;19.844;2023-06-24T08:48:17;19.10;99.90
20740;DHT22;10530;49.968;19.844;2023-06-24T08:53:22;19.20;99.90
20740;DHT22;10530;49.968;19.844;2023-06-24T08:58:25;19.00;99.90
20740;DHT22;10530;49.968;19.844;2023-06-24T09:03:29;19.00;99.90
20740;DHT22;10530;49.968;19.844;2023-06-24T09:08:32;18.80;99.90
20740;DHT22;10530;49.968;19.844;2023-06-24T09:13:36;18.70;99.90
20740;DHT22;10530;49.968;19.844;2023-06-24T09:18:39;18.80;99.90
20740;DHT22;10530;49.968;19.844;2023-06-24T09:23:43;19.00;99.90
20740;DHT22;10530;49.968;19.844;2023-06-24T09:28:49;19.50;99.90
20740;DHT22;10530;49.968;19.844;2023-06-24T09:33:57;19.90;99.90
20740;DHT22;10530;49.968;19.844;2023-06-24T09:39:05;19.90;99.90
20740;DHT22;10530;49.968;19.844;2023-06-24T09:44:23;19.70;99.90
20740;DHT22;10530;49.968;19.844;2023-06-24T09:49:26;19.90;99.90
20740;DHT22;10530;49.968;19.844;2023-06-24T09:54:29;19.90;99.90
20740;DHT22;10530;49.968;19.844;2023-06-24T09:59:36;19.90;99.90
20740;DHT22;10530;49.968;19.844;2023-06-24T10:04:40;19.80;99.90
20740;DHT22;10530;49.968;19.844;2023-06-24T10:09:43;19.60;99.90
20740;DHT22;10530;49.968;19.844;2023-06-24T10:14:47;19.50;99.90
20740;DHT22;10530;49.968;19.844;2023-06-24T10:19:52;19.50;99.90
20740;DHT22;10530;49.968;19.844;2023-06-24T10:25:04;19.60;99.90
20740;DHT22;10530;49.968;19.844;2023-06-24T10:30:08;19.90;99.90
20740;DHT22;10530;49.968;19.844;2023-06-24T10:35:28;19.80;99.90
20740;DHT22;10530;49.968;19.844;2023-06-24T10:40:43;20.30;99.90
20740;DHT22;10530;49.968;19.844;2023-06-24T10:45:51;20.60;99.90
20740;DHT22;10530;49.968;19.844;2023-06-24T10:50:54;20.50;99.90
20740;DHT22;10530;49.968;19.844;2023-06-24T10:55:57;20.10;99.90
20740;DHT22;10530;49.968;19.844;2023-06-24T11:01:08;20.00;99.90
20740;DHT22;10530;49.968;19.844;2023-06-24T11:06:12;20.10;99.90
20740;DHT22;10530;49.968;19.844;2023-06-24T11:11:21;19.90;99.90
20740;DHT22;10530;49.968;19.844;2023-06-24T11:16:24;20.00;99.90
20740;DHT22;10530;49.968;19.844;2023-06-24T11:21:32;20.30;99.90
20740;DHT22;10530;49.968;19.844;2023-06-24T11:26:36;20.40;99.90
20740;DHT22;10530;49.968;19.844;2023-06-24T11:31:39;20.30;99.90
20740;DHT22;10530;49.968;19.844;2023-06-24T11:36:42;20.30;99.90
20740;DHT22;10530;49.968;19.844;2023-06-24T11:41:46;19.80;99.90
20740;DHT22;10530;49.968;19.844;2023-06-24T11:46:49;19.60;99.90
20740;DHT22;10530;49.968;19.844;2023-06-24T11:51:51;19.30;99.90
20740;DHT22;10530;49.968;19.844;2023-06-24T11:56:55;19.20;99.90
20740;DHT22;10530;49.968;19.844;2023-06-24T12:01:59;19.30;99.90
20740;DHT22;10530;49.968;19.844;2023-06-24T12:07:05;19.00;99.90
20740;DHT22;10530;49.968;19.844;2023-06-24T12:12:09;18.80;99.90
20740;DHT22;10530;49.968;19.844;2023-06-24T12:17:13;18.60;99.90
20740;DHT22;10530;49.968;19.844;2023-06-24T12:22:16;18.60;99.90
20740;DHT22;10530;49.968;19.844;2023-06-24T12:27:19;18.60;99.90
20740;DHT22;10530;49.968;19.844;2023-06-24T12:32:22;18.60;99.90
20740;DHT22;10530;49.968;19.844;2023-06-24T12:37:27;18.70;99.90
20740;DHT22;10530;49.968;19.844;2023-06-24T12:42:31;18.50;99.90
20740;DHT22;10530;49.968;19.844;2023-06-24T12:47:34;18.50;99.90
20740;DHT22;10530;49.968;19.844;2023-06-24T12:52:37;18.50;99.90
20740;DHT22;10530;49.968;19.844;2023-06-24T12:57:42;18.70;99.90
20740;DHT22;10530;49.968;19.844;2023-06-24T13:02:44;18.80;99.90
20740;DHT22;10530;49.968;19.844;2023-06-24T13:07:48;18.80;99.90
20740;DHT22;10530;49.968;19.844;2023-06-24T13:12:50;18.90;99.90
20740;DHT22;10530;49.968;19.844;2023-06-24T13:17:55;19.10;99.90
20740;DHT22;10530;49.968;19.844;2023-06-24T13:22:58;18.90;99.90
20740;DHT22;10530;49.968;19.844;2023-06-24T13:28:01;18.80;99.90
20740;DHT22;10530;49.968;19.844;2023-06-24T13:33:04;18.70;99.90
20740;DHT22;10530;49.968;19.844;2023-06-24T13:38:07;18.50;99.90
20740;DHT22;10530;49.968;19.844;2023-06-24T13:43:10;18.40;99.90
20740;DHT22;10530;49.968;19.844;2023-06-24T13:48:16;18.40;99.90
20740;DHT22;10530;49.968;19.844;2023-06-24T13:53:25;18.40;99.90
20740;DHT22;10530;49.968;19.844;2023-06-24T13:58:35;18.30;99.90
20740;DHT22;10530;49.968;19.844;2023-06-24T14:03:38;18.30;99.90
20740;DHT22;10530;49.968;19.844;2023-06-24T14:08:42;18.30;99.90
20740;DHT22;10530;49.968;19.844;2023-06-24T14:13:45;18.30;99.90
20740;DHT22;10530;49.968;19.844;2023-06-24T14:18:48;18.40;99.90
20740;DHT22;10530;49.968;19.844;2023-06-24T14:23:51;18.40;99.90
20740;DHT22;10530;49.968;19.844;2023-06-24T14:28:56;18.20;99.90
20740;DHT22;10530;49.968;19.844;2023-06-24T14:33:59;18.20;99.90
20740;DHT22;10530;49.968;19.844;2023-06-24T14:39:02;18.20;99.90
20740;DHT22;10530;49.968;19.844;2023-06-24T14:44:05;18.10;99.90
20740;DHT22;10530;49.968;19.844;2023-06-24T14:49:08;18.10;99.90
20740;DHT22;10530;49.968;19.844;2023-06-24T14:54:11;18.00;99.90
20740;DHT22;10530;49.968;19.844;2023-06-24T14:59:14;18.00;99.90
20740;DHT22;10530;49.968;19.844;2023-06-24T15:04:17;18.00;99.90
20740;DHT22;10530;49.968;19.844;2023-06-24T15:09:23;18.00;99.90
20740;DHT22;10530;49.968;19.844;2023-06-24T15:14:26;18.00;99.90
20740;DHT22;10530;49.968;19.844;2023-06-24T15:19:29;17.90;99.90
20740;DHT22;10530;49.968;19.844;2023-06-24T15:24:32;18.00;99.90
20740;DHT22;10530;49.968;19.844;2023-06-24T15:29:35;18.00;99.90
20740;DHT22;10530;49.968;19.844;2023-06-24T15:34:38;17.80;99.90
20740;DHT22;10530;49.968;19.844;2023-06-24T15:39:41;17.80;99.90
20740;DHT22;10530;49.968;19.844;2023-06-24T15:44:44;17.80;99.90
20740;DHT22;10530;49.968;19.844;2023-06-24T15:49:47;17.90;99.90
20740;DHT22;10530;49.968;19.844;2023-06-24T15:54:51;17.80;99.90
20740;DHT22;10530;49.968;19.844;2023-06-24T15:59:53;17.90;99.90
20740;DHT22;10530;49.968;19.844;2023-06-24T16:04:56;17.90;99.90
20740;DHT22;10530;49.968;19.844;2023-06-24T16:10:00;17.80;99.90
20740;DHT22;10530;49.968;19.844;2023-06-24T16:15:03;17.70;99.90
20740;DHT22;10530;49.968;19.844;2023-06-24T16:20:07;17.80;99.90
20740;DHT22;10530;49.968;19.844;2023-06-24T16:25:10;17.80;99.90
20740;DHT22;10530;49.968;19.844;2023-06-24T16:30:13;17.70;99.90
20740;DHT22;10530;49.968;19.844;2023-06-24T16:35:16;17.60;99.90
20740;DHT22;10530;49.968;19.844;2023-06-24T16:40:19;17.50;99.90
20740;DHT22;10530;49.968;19.844;2023-06-24T16:45:23;17.40;99.90
20740;DHT22;10530;49.968;19.844;2023-06-24T16:50:26;17.20;99.90
20740;DHT22;10530;49.968;19.844;2023-06-24T16:55:29;17.10;99.90
20740;DHT22;10530;49.968;19.844;2023-06-24T17:00:32;17.10;99.90
20740;DHT22;10530;49.968;19.844;2023-06-24T17:05:35;17.00;99.90
20740;DHT22;10530;49.968;19.844;2023-06-24T17:10:41;16.90;99.90
20740;DHT22;10530;49.968;19.844;2023-06-24T17:15:44;16.80;99.90
20740;DHT22;10530;49.968;19.844;2023-06-24T17:20:49;16.80;99.90
20740;DHT22;10530;49.968;19.844;2023-06-24T17:25:52;16.70;99.90
20740;DHT22;10530;49.968;19.844;2023-06-24T17:30:55;16.70;99.90
20740;DHT22;10530;49.968;19.844;2023-06-24T17:35:59;16.80;99.90
20740;DHT22;10530;49.968;19.844;2023-06-24T17:41:02;16.80;99.90
20740;DHT22;10530;49.968;19.844;2023-06-24T17:46:05;16.60;99.90
20740;DHT22;10530;49.968;19.844;2023-06-24T17:51:08;16.50;99.90
20740;DHT22;10530;49.968;19.844;2023-06-24T17:56:12;16.30;99.90
20740;DHT22;10530;49.968;19.844;2023-06-24T18:01:15;16.30;99.90
20740;DHT22;10530;49.968;19.844;2023-06-24T18:06:20;16.30;99.90
20740;DHT22;10530;49.968;19.844;2023-06-24T18:11:23;16.30;99.90
20740;DHT22;10530;49.968;19.844;2023-06-24T18:16:26;16.30;99.90
20740;DHT22;10530;49.968;19.844;2023-06-24T18:21:28;16.20;99.90
20740;DHT22;10530;49.968;19.844;2023-06-24T18:26:32;16.10;99.90
20740;DHT22;10530;49.968;19.844;2023-06-24T18:31:36;15.90;99.90
20740;DHT22;10530;49.968;19.844;2023-06-24T18:36:40;15.90;99.90
20740;DHT22;10530;49.968;19.844;2023-06-24T18:41:43;16.00;99.90
20740;DHT22;10530;49.968;19.844;2023-06-24T18:46:48;16.00;99.90
20740;DHT22;10530;49.968;19.844;2023-06-24T18:51:51;16.00;99.90
20740;DHT22;10530;49.968;19.844;2023-06-24T18:56:54;16.00;99.90
20740;DHT22;10530;49.968;19.844;2023-06-24T19:01:57;16.00;99.90
20740;DHT22;10530;49.968;19.844;2023-06-24T19:07:02;15.80;99.90
20740;DHT22;10530;49.968;19.844;2023-06-24T19:12:05;15.70;99.90
20740;DHT22;10530;49.968;19.844;2023-06-24T19:17:08;15.70;99.90
20740;DHT22;10530;49.968;19.844;2023-06-24T19:22:11;15.70;99.90
20740;DHT22;10530;49.968;19.844;2023-06-24T19:27:14;15.70;99.90
20740;DHT22;10530;49.968;19.844;2023-06-24T19:32:17;15.70;99.90
20740;DHT22;10530;49.968;19.844;2023-06-24T19:37:21;15.70;99.90
20740;DHT22;10530;49.968;19.844;2023-06-24T19:42:23;15.80;99.90
20740;DHT22;10530;49.968;19.844;2023-06-24T19:47:26;15.80;99.90
20740;DHT22;10530;49.968;19.844;2023-06-24T19:52:30;15.80;99.90
20740;DHT22;10530;49.968;19.844;2023-06-24T19:57:33;15.80;99.90
20740;DHT22;10530;49.968;19.844;2023-06-24T20:02:41;15.80;99.90
20740;DHT22;10530;49.968;19.844;2023-06-24T20:07:46;15.80;99.90
20740;DHT22;10530;49.968;19.844;2023-06-24T20:12:49;15.80;99.90
20740;DHT22;10530;49.968;19.844;2023-06-24T20:17:52;15.80;99.90
20740;DHT22;10530;49.968;19.844;2023-06-24T20:22:55;15.70;99.90
20740;DHT22;10530;49.968;19.844;2023-06-24T20:27:58;15.60;99.90
20740;DHT22;10530;49.968;19.844;2023-06-24T20:33:02;15.70;99.90
20740;DHT22;10530;49.968;19.844;2023-06-24T20:38:05;15.70;99.90
20740;DHT22;10530;49.968;19.844;2023-06-24T20:43:08;15.70;99.90
20740;DHT22;10530;49.968;19.844;2023-06-24T20:48:11;15.70;99.90
20740;DHT22;10530;49.968;19.844;2023-06-24T20:53:14;15.60;99.90
20740;DHT22;10530;49.968;19.844;2023-06-24T20:58:18;15.60;99.90
20740;DHT22;10530;49.968;19.844;2023-06-24T21:03:21;15.60;99.90
20740;DHT22;10530;49.968;19.844;2023-06-24T21:08:25;15.50;99.90
20740;DHT22;10530;49.968;19.844;2023-06-24T21:13:28;15.50;99.90
20740;DHT22;10530;49.968;19.844;2023-06-24T21:18:31;15.50;99.90
20740;DHT22;10530;49.968;19.844;2023-06-24T21:23:35;15.50;99.90
20740;DHT22;10530;49.968;19.844;2023-06-24T21:28:38;15.40;99.90
20740;DHT22;10530;49.968;19.844;2023-06-24T21:33:41;15.50;99.90
20740;DHT22;10530;49.968;19.844;2023-06-24T21:38:46;15.40;99.90
20740;DHT22;10530;49.968;19.844;2023-06-24T21:43:49;15.30;99.90
20740;DHT22;10530;49.968;19.844;2023-06-24T21:48:52;15.20;99.90
20740;DHT22;10530;49.968;19.844;2023-06-24T21:53:55;15.20;99.90
20740;DHT22;10530;49.968;19.844;2023-06-24T21:58:58;15.00;99.90
20740;DHT22;10530;49.968;19.844;2023-06-24T22:04:01;14.90;99.90
20740;DHT22;10530;49.968;19.844;2023-06-24T22:09:04;14.80;99.90
20740;DHT22;10530;49.968;19.844;2023-06-24T22:14:07;14.70;99.90
20740;DHT22;10530;49.968;19.844;2023-06-24T22:19:11;14.50;99.90
20740;DHT22;10530;49.968;19.844;2023-06-24T22:24:14;14.40;99.90
20740;DHT22;10530;49.968;19.844;2023-06-24T22:29:16;14.30;99.90
20740;DHT22;10530;49.968;19.844;2023-06-24T22:34:19;14.20;99.90
20740;DHT22;10530;49.968;19.844;2023-06-24T22:39:22;14.20;99.90
20740;DHT22;10530;49.968;19.844;2023-06-24T22:44:25;14.00;99.90
20740;DHT22;10530;49.968;19.844;2023-06-24T22:49:28;13.90;99.90
20740;DHT22;10530;49.968;19.844;2023-06-24T22:54:31;14.00;99.90
20740;DHT22;10530;49.968;19.844;2023-06-24T22:59:34;13.90;99.90
20740;DHT22;10530;49.968;19.844;2023-06-24T23:04:37;13.70;99.90
20740;DHT22;10530;49.968;19.844;2023-06-24T23:09:40;13.60;99.90
20740;DHT22;10530;49.968;19.844;2023-06-24T23:14:43;13.60;99.90
20740;DHT22;10530;49.968;19.844;2023-06-24T23:19:47;13.50;99.90
20740;DHT22;10530;49.968;19.844;2023-06-24T23:24:50;13.50;99.90
20740;DHT22;10530;49.968;19.844;2023-06-24T23:29:57;13.40;99.90
20740;DHT22;10530;49.968;19.844;2023-06-24T23:35:07;13.50;99.90
20740;DHT22;10530;49.968;19.844;2023-06-24T23:40:11;13.50;99.90
20740;DHT22;10530;49.968;19.844;2023-06-24T23:45:14;13.50;99.90
20740;DHT22;10530;49.968;19.844;2023-06-24T23:50:17;13.60;99.90
20740;DHT22;10530;49.968;19.844;2023-06-24T23:55:20;13.60;99.90
